Time;durP1;ratioP1;P1;durP2;ratioP2;P2;SDS_P1;SDS_P2;PMS_P1;PMS_P2;Temp;Humidity;BMP_temperature;BMP_pressure;BME280_temperature;BME280_humidity;BME280_pressure;Samples;Min_cycle;Max_cycle;Signal;HPM_P1;HPM_P2
2021/10/11 00:00:08;;;;;;;;;61.00;48.25;;;;;12.94;70.07;102441.66;4978894;28;45537;-64
2021/10/11 00:02:34;;;;;;;;;64.50;50.25;;;;;12.93;70.08;102439.97;4975076;28;45517;-65
2021/10/11 00:04:59;;;;;;;;;62.75;46.25;;;;;12.90;70.38;102433.06;4976270;28;45369;-66
2021/10/11 00:07:25;;;;;;;;;65.25;49.50;;;;;12.90;70.13;102432.22;4978939;28;46187;-66
2021/10/11 00:09:50;;;;;;;;;60.75;47.50;;;;;12.87;70.39;102435.91;4978712;28;45493;-66
2021/10/11 00:12:19;;;;;;;;;65.50;49.75;;;;;12.84;70.47;102425.50;4981584;28;45334;-66
2021/10/11 00:14:44;;;;;;;;;64.00;48.50;;;;;12.81;70.42;102430.97;4982436;28;45469;-65
2021/10/11 00:17:10;;;;;;;;;55.50;41.75;;;;;12.77;70.60;102424.16;4994099;28;46032;-66
2021/10/11 00:19:36;;;;;;;;;64.50;48.00;;;;;12.73;70.81;102431.38;4982533;28;45567;-67
2021/10/11 00:22:03;;;;;;;;;53.75;45.00;;;;;12.70;70.87;102439.44;4980217;28;45536;-67
2021/10/11 00:24:28;;;;;;;;;65.75;49.00;;;;;12.66;70.85;102435.28;4985861;28;45483;-66
2021/10/11 00:26:54;;;;;;;;;61.50;46.00;;;;;12.61;71.26;102427.66;4992880;28;46932;-65
2021/10/11 00:29:19;;;;;;;;;63.25;46.00;;;;;12.59;71.53;102434.78;4977842;28;45452;-66
2021/10/11 00:31:44;;;;;;;;;67.75;50.00;;;;;12.59;71.67;102429.50;4982587;28;45290;-66
2021/10/11 00:34:09;;;;;;;;;63.75;49.00;;;;;12.59;71.54;102431.31;4992303;28;45574;-65
2021/10/11 00:36:35;;;;;;;;;68.00;51.75;;;;;12.55;71.53;102423.56;4985820;28;47201;-65
2021/10/11 00:39:00;;;;;;;;;67.00;50.25;;;;;12.52;71.85;102425.53;4981972;28;45428;-65
2021/10/11 00:41:28;;;;;;;;;60.50;48.75;;;;;12.48;72.16;102426.63;4959857;28;45339;-66
2021/10/11 00:43:54;;;;;;;;;66.25;47.25;;;;;12.45;72.48;102426.78;4981578;28;45499;-66
2021/10/11 00:46:20;;;;;;;;;63.25;48.25;;;;;12.40;72.42;102421.75;4981100;28;46644;-65
2021/10/11 00:48:45;;;;;;;;;64.00;49.00;;;;;12.38;72.35;102429.75;4981622;28;45261;-66
2021/10/11 00:51:11;;;;;;;;;65.25;50.00;;;;;12.35;72.51;102427.31;4963935;28;45849;-65
2021/10/11 00:53:36;;;;;;;;;66.00;49.75;;;;;12.33;73.02;102423.91;4978961;28;45366;-67
2021/10/11 00:56:01;;;;;;;;;67.50;51.75;;;;;12.29;73.29;102425.00;4978606;28;46096;-66
2021/10/11 00:58:27;;;;;;;;;65.50;49.25;;;;;12.26;73.21;102430.44;4981688;28;45527;-63
2021/10/11 01:00:54;;;;;;;;;68.50;51.00;;;;;12.22;73.68;102418.34;4981369;28;45446;-65
2021/10/11 01:03:19;;;;;;;;;67.50;51.25;;;;;12.22;73.55;102428.88;4982669;28;45711;-65
2021/10/11 01:05:44;;;;;;;;;70.75;53.00;;;;;12.20;73.65;102428.97;4991551;28;47415;-66
2021/10/11 01:08:10;;;;;;;;;66.25;49.75;;;;;12.20;73.72;102422.88;4978580;28;45390;-66
2021/10/11 01:10:35;;;;;;;;;67.00;51.00;;;;;12.18;73.60;102419.47;4982216;28;45382;-66
2021/10/11 01:13:01;;;;;;;;;71.50;51.25;;;;;12.15;73.90;102407.28;4981833;28;45449;-65
2021/10/11 01:15:26;;;;;;;;;66.25;52.00;;;;;12.16;73.85;102429.25;4982240;28;45976;-66
2021/10/11 01:17:51;;;;;;;;;69.00;52.00;;;;;12.15;74.05;102422.25;4982053;28;45528;-66
2021/10/11 01:20:17;;;;;;;;;61.25;47.50;;;;;12.10;74.25;102414.59;4967945;28;45516;-66
2021/10/11 01:22:43;;;;;;;;;65.25;51.00;;;;;12.11;74.10;102423.38;4980774;28;45409;-66
2021/10/11 01:25:12;;;;;;;;;68.75;50.50;;;;;12.09;73.88;102417.31;4980981;28;47278;-66
2021/10/11 01:27:37;;;;;;;;;70.75;51.00;;;;;12.08;74.68;102415.63;4962479;28;46202;-66
2021/10/11 01:30:04;;;;;;;;;68.50;53.25;;;;;12.06;73.83;102423.59;4963855;28;45479;-65
2021/10/11 01:32:30;;;;;;;;;69.75;52.75;;;;;12.02;74.13;102417.63;4976941;28;45407;-66
2021/10/11 01:34:55;;;;;;;;;69.75;52.50;;;;;12.02;74.55;102417.63;4974939;28;45477;-66
2021/10/11 01:37:21;;;;;;;;;71.25;54.50;;;;;12.01;74.32;102421.22;4972352;28;45446;-65
2021/10/11 01:39:47;;;;;;;;;66.25;52.00;;;;;12.03;74.44;102423.78;4985134;28;45408;-66
2021/10/11 01:42:12;;;;;;;;;68.25;50.50;;;;;12.01;74.80;102426.50;4980510;28;45604;-66
2021/10/11 01:44:38;;;;;;;;;67.75;51.75;;;;;12.05;74.78;102425.41;4978666;28;46003;-66
2021/10/11 01:47:04;;;;;;;;;65.75;51.00;;;;;12.10;74.37;102421.66;4961309;28;45344;-65
2021/10/11 01:49:29;;;;;;;;;69.75;53.00;;;;;12.11;74.62;102405.78;4986774;28;45288;-65
2021/10/11 01:51:54;;;;;;;;;69.50;52.75;;;;;12.16;74.80;102410.81;4979700;28;45576;-65
2021/10/11 01:54:20;;;;;;;;;68.25;52.50;;;;;12.18;74.68;102396.63;4981326;28;47096;-66
2021/10/11 01:56:45;;;;;;;;;68.50;49.75;;;;;12.21;74.82;102403.50;4980408;28;45437;-65
2021/10/11 01:59:10;;;;;;;;;66.50;49.00;;;;;12.22;74.99;102402.53;4978253;28;46139;-65
2021/10/11 02:01:36;;;;;;;;;68.50;51.50;;;;;12.21;75.60;102400.88;4981830;28;45277;-66
2021/10/11 02:04:01;;;;;;;;;65.25;50.25;;;;;12.21;75.15;102406.13;4983733;28;45595;-66
2021/10/11 02:06:26;;;;;;;;;65.75;52.00;;;;;12.22;75.56;102415.72;4965838;28;45553;-66
2021/10/11 02:08:52;;;;;;;;;65.25;49.75;;;;;12.24;75.91;102420.94;4962142;28;45616;-65
2021/10/11 02:11:17;;;;;;;;;66.00;50.25;;;;;12.17;76.54;102415.16;4976982;28;45580;-66
2021/10/11 02:13:43;;;;;;;;;71.50;50.25;;;;;12.14;77.16;102420.56;4981374;28;45986;-64
2021/10/11 02:16:08;;;;;;;;;75.25;53.50;;;;;12.12;77.02;102417.19;4986138;28;45542;-66
2021/10/11 02:18:33;;;;;;;;;66.25;50.25;;;;;12.12;77.11;102419.81;4987250;28;45521;-67
2021/10/11 02:20:59;;;;;;;;;61.75;49.00;;;;;12.10;77.27;102406.69;4985077;28;45313;-66
2021/10/11 02:23:24;;;;;;;;;72.25;52.25;;;;;12.14;77.13;102410.91;4976542;28;45369;-66
2021/10/11 02:25:50;;;;;;;;;66.25;47.75;;;;;12.14;77.37;102399.47;4981131;28;45453;-66
2021/10/11 02:28:15;;;;;;;;;63.00;47.00;;;;;12.18;76.96;102403.66;4976661;28;45833;-67
2021/10/11 02:30:41;;;;;;;;;65.25;49.00;;;;;12.20;76.80;102410.53;4975519;28;45820;-65
2021/10/11 02:33:06;;;;;;;;;63.50;48.00;;;;;12.18;76.69;102407.16;4980304;28;45497;-65
2021/10/11 02:35:32;;;;;;;;;73.75;54.00;;;;;12.22;77.12;102410.44;4976045;28;45368;-65
2021/10/11 02:37:57;;;;;;;;;56.50;47.75;;;;;12.25;77.01;102399.75;4974411;28;45331;-67
2021/10/11 02:40:22;;;;;;;;;69.25;51.00;;;;;12.28;77.07;102402.22;4981697;28;45429;-65
2021/10/11 02:42:48;;;;;;;;;61.75;46.75;;;;;12.30;77.26;102402.13;4980822;28;46089;-66
2021/10/11 02:45:13;;;;;;;;;64.25;47.00;;;;;12.32;77.24;102393.19;4988326;28;45647;-69
2021/10/11 02:47:39;;;;;;;;;62.75;47.50;;;;;12.34;77.08;102391.34;4977293;28;45477;-67
2021/10/11 02:50:05;;;;;;;;;67.75;49.25;;;;;12.36;77.24;102392.13;4978238;28;45520;-65
2021/10/11 02:52:33;;;;;;;;;65.75;50.25;;;;;12.40;77.45;102394.56;4980369;28;45571;-67
2021/10/11 02:54:58;;;;;;;;;63.25;45.00;;;;;12.41;77.19;102391.00;4979558;28;45425;-66
2021/10/11 02:57:24;;;;;;;;;66.00;48.75;;;;;12.41;77.09;102386.56;4979717;28;45465;-66
2021/10/11 02:59:49;;;;;;;;;68.25;49.00;;;;;12.46;77.10;102386.34;4978921;28;45401;-66
2021/10/11 03:02:14;;;;;;;;;67.25;49.75;;;;;12.47;77.37;102396.78;4976191;28;45951;-68
2021/10/11 03:04:40;;;;;;;;;67.00;48.25;;;;;12.46;77.03;102373.16;4980105;28;45374;-66
2021/10/11 03:07:05;;;;;;;;;63.00;46.00;;;;;12.52;77.29;102372.81;4979594;28;45829;-66
2021/10/11 03:09:30;;;;;;;;;58.50;43.50;;;;;12.54;77.12;102368.28;4981020;28;45429;-66
2021/10/11 03:11:56;;;;;;;;;61.25;47.25;;;;;12.57;77.29;102376.06;4978203;28;46150;-66
2021/10/11 03:14:21;;;;;;;;;65.00;49.00;;;;;12.57;77.16;102373.41;4991394;28;45463;-67
2021/10/11 03:16:47;;;;;;;;;66.00;50.75;;;;;12.61;77.01;102377.56;4980865;28;45363;-66
2021/10/11 03:19:12;;;;;;;;;64.50;47.50;;;;;12.63;76.79;102380.94;4979532;28;45355;-66
2021/10/11 03:21:37;;;;;;;;;62.75;47.25;;;;;12.63;77.15;102380.94;4979498;28;45267;-67
2021/10/11 03:24:03;;;;;;;;;63.25;48.50;;;;;12.65;77.32;102379.09;4979129;28;45537;-66
2021/10/11 03:26:28;;;;;;;;;66.75;48.50;;;;;12.67;77.01;102384.28;4976186;28;47361;-66
2021/10/11 03:28:54;;;;;;;;;64.75;47.00;;;;;12.70;77.32;102386.72;4972383;28;45442;-67
2021/10/11 03:31:19;;;;;;;;;62.50;48.50;;;;;12.73;76.94;102390.97;4986895;28;45338;-67
2021/10/11 03:33:44;;;;;;;;;64.50;47.75;;;;;12.75;76.72;102386.47;4988229;28;45280;-67
2021/10/11 03:36:10;;;;;;;;;65.25;46.50;;;;;12.81;76.68;102391.41;4985981;28;45323;-65
2021/10/11 03:38:35;;;;;;;;;63.25;47.25;;;;;12.84;76.88;102389.44;4971265;28;45519;-66
2021/10/11 03:41:01;;;;;;;;;59.75;45.00;;;;;12.88;76.97;102390.09;4975047;28;46389;-67
2021/10/11 03:43:26;;;;;;;;;63.75;47.00;;;;;12.91;76.60;102389.94;4979622;28;45379;-66
2021/10/11 03:45:54;;;;;;;;;56.50;44.50;;;;;12.93;76.89;102392.47;4981473;28;45552;-66
2021/10/11 03:48:20;;;;;;;;;61.00;47.25;;;;;12.95;76.50;102394.09;4981157;28;45489;-67
2021/10/11 03:50:46;;;;;;;;;62.50;46.50;;;;;12.94;76.70;102391.56;4974681;28;46261;-66
2021/10/11 03:53:13;;;;;;;;;57.25;44.75;;;;;12.97;76.70;102394.88;4989166;28;45488;-67
2021/10/11 03:55:42;;;;;;;;;61.50;48.25;;;;;12.98;76.43;102396.53;4989649;28;45290;-65
2021/10/11 03:58:09;;;;;;;;;51.75;41.75;;;;;12.98;76.41;102401.81;4980249;28;45624;-66
2021/10/11 04:00:34;;;;;;;;;58.75;44.25;;;;;12.97;76.71;102400.13;4979084;28;46395;-65
2021/10/11 04:03:03;;;;;;;;;61.00;45.25;;;;;13.00;76.59;102402.59;4979299;28;45430;-67
2021/10/11 04:05:28;;;;;;;;;51.75;41.50;;;;;13.00;76.15;102399.94;4957859;28;45568;-66
2021/10/11 04:07:57;;;;;;;;;53.25;40.75;;;;;13.00;76.72;102402.59;4965491;28;45410;-66
2021/10/11 04:10:29;;;;;;;;;58.75;43.75;;;;;12.99;76.93;102395.59;4978984;28;47249;-66
2021/10/11 04:13:01;;;;;;;;;46.33;36.00;;;;;12.99;76.64;102392.13;4978304;28;45409;-66
2021/10/11 04:15:26;;;;;;;;;52.33;40.67;;;;;13.00;76.79;102394.69;4978231;28;45682;-66
2021/10/11 04:17:54;;;;;;;;;49.00;37.25;;;;;13.01;76.91;102396.38;4978523;28;45449;-66
2021/10/11 04:20:20;;;;;;;;;50.33;38.33;;;;;13.00;76.63;102394.69;4974408;28;46591;-67
2021/10/11 04:22:45;;;;;;;;;46.25;37.25;;;;;12.97;76.65;102400.13;4994091;28;45279;-66
2021/10/11 04:25:10;;;;;;;;;48.33;35.67;;;;;12.95;77.06;102395.88;4975214;28;45291;-66
2021/10/11 04:27:36;;;;;;;;;49.67;38.00;;;;;12.92;76.93;102394.28;4978876;28;45335;-67
2021/10/11 04:30:01;;;;;;;;;45.00;36.67;;;;;12.95;77.08;102390.63;4989351;28;46160;-66
2021/10/11 04:32:26;;;;;;;;;43.67;33.67;;;;;12.95;76.98;102394.09;4975172;28;45504;-66
2021/10/11 04:34:52;;;;;;;;;43.67;34.33;;;;;12.94;76.86;102389.75;4977776;28;45501;-66
2021/10/11 04:37:17;;;;;;;;;46.67;33.33;;;;;12.97;76.54;102394.88;4978616;28;45290;-66
2021/10/11 04:39:42;;;;;;;;;42.67;31.00;;;;;12.96;76.98;102395.78;4978453;28;46758;-66
2021/10/11 04:42:08;;;;;;;;;33.67;29.33;;;;;12.97;77.12;102399.28;4979478;28;45370;-65
2021/10/11 04:44:33;;;;;;;;;37.33;26.67;;;;;12.96;77.02;102400.19;4976770;28;45601;-66
2021/10/11 04:46:58;;;;;;;;;30.00;27.67;;;;;12.94;77.06;102400.31;4974157;28;45552;-66
2021/10/11 04:49:24;;;;;;;;;36.00;28.33;;;;;12.93;76.97;102406.50;4979060;28;45394;-66
2021/10/11 04:51:49;;;;;;;;;29.67;26.00;;;;;12.91;77.13;102410.16;4960810;28;45459;-66
2021/10/11 04:54:14;;;;;;;;;32.67;27.00;;;;;12.88;76.95;102405.91;4979052;28;45358;-65
2021/10/11 04:56:41;;;;;;;;;28.33;25.33;;;;;12.85;77.25;102398.19;4976681;28;45390;-65
2021/10/11 04:59:06;;;;;;;;;32.33;27.00;;;;;12.82;77.37;102411.56;4969384;28;45426;-66
2021/10/11 05:01:32;;;;;;;;;31.33;25.33;;;;;12.78;77.40;102417.94;4972658;28;45457;-66
2021/10/11 05:03:57;;;;;;;;;25.33;22.33;;;;;12.74;77.39;102412.00;4981093;28;45299;-67
2021/10/11 05:06:22;;;;;;;;;30.00;27.33;;;;;12.68;77.31;102407.91;4969822;28;45474;-67
2021/10/11 05:08:47;;;;;;;;;29.67;24.00;;;;;12.65;77.53;102410.72;4981810;28;46266;-66
2021/10/11 05:11:13;;;;;;;;;29.33;23.67;;;;;12.64;77.43;102416.94;4960973;28;45519;-66
2021/10/11 05:13:38;;;;;;;;;28.67;23.67;;;;;12.61;77.79;102410.97;4982528;28;45338;-65
2021/10/11 05:16:10;;;;;;;;;28.33;25.00;;;;;12.59;77.57;102411.06;4986819;28;45328;-66
2021/10/11 05:18:35;;;;;;;;;17.00;17.00;;;;;12.57;77.64;102407.69;4985823;28;46236;-66
2021/10/11 05:21:01;;;;;;;;;26.67;20.67;;;;;12.58;77.44;102416.44;4963451;28;45531;-66
2021/10/11 05:23:26;;;;;;;;;32.67;23.67;;;;;12.56;77.59;102405.97;4977655;28;45559;-67
2021/10/11 05:25:51;;;;;;;;;27.33;23.00;;;;;12.55;77.70;102415.66;4993903;28;45320;-66
2021/10/11 05:28:17;;;;;;;;;27.00;23.33;;;;;12.55;77.67;102414.81;4978334;28;45996;-66
2021/10/11 05:30:42;;;;;;;;;32.00;27.33;;;;;12.55;77.45;102406.91;4963769;28;45411;-65
2021/10/11 05:33:09;;;;;;;;;29.33;25.67;;;;;12.54;77.61;102405.19;4981246;28;45399;-66
2021/10/11 05:35:40;;;;;;;;;26.00;18.67;;;;;12.54;77.55;102418.38;4978837;28;45341;-66
2021/10/11 05:38:05;;;;;;;;;24.00;22.00;;;;;12.52;77.49;102415.84;4979084;28;46562;-67
2021/10/11 05:40:31;;;;;;;;;28.33;21.00;;;;;12.51;77.57;102429.94;4981963;28;45576;-66
2021/10/11 05:42:58;;;;;;;;;31.67;25.00;;;;;12.50;77.33;102419.50;4981562;28;45425;-66
2021/10/11 05:45:23;;;;;;;;;26.00;20.67;;;;;12.49;77.57;102423.06;4981147;28;45569;-66
2021/10/11 05:47:49;;;;;;;;;26.00;20.00;;;;;12.50;77.46;102430.88;4980588;28;45309;-66
2021/10/11 05:50:14;;;;;;;;;27.67;20.67;;;;;12.51;77.61;102418.56;4977825;28;45331;-67
2021/10/11 05:52:39;;;;;;;;;41.00;33.00;;;;;12.52;77.28;102425.53;4964367;28;45604;-67
2021/10/11 05:55:06;;;;;;;;;35.33;29.33;;;;;12.50;77.41;102425.59;4981157;28;45403;-65
2021/10/11 05:57:32;;;;;;;;;26.00;21.33;;;;;12.51;77.23;102424.66;4981158;28;47760;-66
2021/10/11 05:59:58;;;;;;;;;15.67;12.00;;;;;12.53;77.15;102435.13;4980998;28;45528;-67
2021/10/11 06:02:24;;;;;;;;;34.67;21.67;;;;;12.53;77.42;102449.16;4967025;28;45369;-66
2021/10/11 06:04:49;;;;;;;;;19.67;17.00;;;;;12.55;77.32;102446.44;4983304;28;45247;-66
2021/10/11 06:07:14;;;;;;;;;22.67;19.00;;;;;12.55;77.35;102442.00;4963765;28;46820;-67
2021/10/11 06:09:41;;;;;;;;;26.33;20.33;;;;;12.59;77.36;102444.50;4981225;28;45444;-66
2021/10/11 06:12:06;;;;;;;;;27.67;23.33;;;;;12.60;77.08;102449.69;4982475;28;45446;-66
2021/10/11 06:14:31;;;;;;;;;23.67;20.00;;;;;12.62;77.16;102455.69;4978237;28;45447;-66
2021/10/11 06:16:57;;;;;;;;;20.00;16.67;;;;;12.62;76.91;102458.34;4982220;28;45309;-65
2021/10/11 06:19:22;;;;;;;;;60.50;42.50;;;;;12.60;77.01;102459.34;4984000;28;45400;-66
2021/10/11 06:21:47;;;;;;;;;71.00;51.75;;;;;12.59;76.59;102461.16;4982862;28;45397;-66
2021/10/11 06:24:14;;;;;;;;;83.00;63.25;;;;;12.60;76.93;102462.84;4980295;28;45461;-67
2021/10/11 06:26:39;;;;;;;;;22.33;19.67;;;;;12.59;76.88;102469.06;4966390;28;46176;-65
2021/10/11 06:29:05;;;;;;;;;56.00;39.50;;;;;12.54;76.69;102458.78;4977974;28;45548;-66
2021/10/11 06:31:30;;;;;;;;;19.33;17.33;;;;;12.50;76.66;102469.56;4981090;28;45346;-68
2021/10/11 06:33:56;;;;;;;;;18.33;16.33;;;;;12.46;76.74;102460.97;4980239;28;45488;-66
2021/10/11 06:36:21;;;;;;;;;17.00;12.00;;;;;12.43;76.54;102468.19;4963771;28;47025;-67
2021/10/11 06:38:46;;;;;;;;;19.00;16.67;;;;;12.34;76.76;102454.59;4980373;28;45585;-67
2021/10/11 06:41:12;;;;;;;;;21.00;16.67;;;;;12.34;76.85;102454.59;4957027;28;45524;-64
2021/10/11 06:43:39;;;;;;;;;18.33;14.33;;;;;12.43;76.58;102468.19;4981592;28;45564;-67
2021/10/11 06:46:05;;;;;;;;;11.33;9.00;;;;;12.42;76.82;102466.50;4980302;28;46479;-66
2021/10/11 06:48:31;;;;;;;;;26.67;17.33;;;;;12.41;76.73;102464.81;4982153;28;45484;-66
2021/10/11 06:50:57;;;;;;;;;18.33;14.33;;;;;12.41;76.86;102470.06;4991493;28;45461;-65
2021/10/11 06:53:22;;;;;;;;;14.33;12.33;;;;;12.43;76.40;102473.47;4969768;28;45588;-66
2021/10/11 06:55:48;;;;;;;;;18.00;13.00;;;;;12.43;76.31;102473.47;4981065;28;46552;-65
2021/10/11 06:58:13;;;;;;;;;14.33;13.33;;;;;12.44;76.35;102476.03;4980632;28;45436;-66
2021/10/11 07:00:38;;;;;;;;;18.00;13.00;;;;;12.44;76.33;102480.44;4976232;28;45972;-65
2021/10/11 07:03:05;;;;;;;;;13.00;12.67;;;;;12.42;76.22;102472.63;4969217;28;45459;-65
2021/10/11 07:05:32;;;;;;;;;18.67;14.00;;;;;12.41;76.20;102477.97;4976760;28;46534;-66
2021/10/11 07:07:59;;;;;;;;;16.33;13.00;;;;;12.41;75.92;102470.06;4979016;28;45520;-68
2021/10/11 07:10:25;;;;;;;;;19.33;14.00;;;;;12.42;76.12;102471.78;4980220;28;45521;-66
2021/10/11 07:12:50;;;;;;;;;5.67;1.67;;;;;12.44;75.94;102472.53;4980291;28;45394;-66
2021/10/11 07:15:16;;;;;;;;;22.00;12.33;;;;;12.45;76.02;102476.88;4978874;28;46217;-65
2021/10/11 07:17:41;;;;;;;;;17.00;15.67;;;;;12.46;75.80;102483.84;4967390;28;46069;-67
2021/10/11 07:20:07;;;;;;;;;11.00;10.67;;;;;12.47;75.79;102480.28;4977942;28;45285;-65
2021/10/11 07:22:33;;;;;;;;;16.00;14.00;;;;;12.47;75.59;102485.56;4978719;28;45300;-65
2021/10/11 07:24:58;;;;;;;;;8.67;7.67;;;;;12.52;75.73;102492.28;4962116;28;47528;-66
2021/10/11 07:27:24;;;;;;;;;19.33;14.67;;;;;12.54;75.58;102493.06;4962205;28;45516;-65
2021/10/11 07:29:49;;;;;;;;;14.00;9.67;;;;;12.58;75.30;102504.25;4974393;28;45512;-65
2021/10/11 07:32:15;;;;;;;;;12.00;9.33;;;;;12.59;75.46;102508.59;4975534;28;45215;-65
2021/10/11 07:34:41;;;;;;;;;17.00;10.67;;;;;12.62;75.02;102507.59;4989952;28;46087;-66
2021/10/11 07:37:06;;;;;;;;;11.67;8.67;;;;;12.63;74.96;102519.84;4981455;28;45163;-67
2021/10/11 07:39:32;;;;;;;;;18.67;13.00;;;;;12.64;74.76;102522.38;4979734;28;45639;-64
2021/10/11 07:41:59;;;;;;;;;69.50;52.50;;;;;12.59;74.86;102516.50;4974506;28;45602;-64
2021/10/11 07:44:25;;;;;;;;;13.00;9.33;;;;;12.66;74.45;102536.34;4975441;28;46054;-66
2021/10/11 07:46:54;;;;;;;;;7.67;6.00;;;;;12.63;73.80;102531.22;4979978;28;45489;-66
2021/10/11 07:49:21;;;;;;;;;16.67;13.33;;;;;12.65;74.11;102532.00;4980045;28;45677;-66
2021/10/11 07:51:46;;;;;;;;;12.00;8.00;;;;;12.66;74.25;102533.72;4981719;28;45334;-65
2021/10/11 07:54:12;;;;;;;;;10.67;7.33;;;;;12.69;73.86;102528.25;4978630;28;46955;-66
2021/10/11 07:56:37;;;;;;;;;12.67;8.00;;;;;12.72;73.86;102527.25;4991169;28;45552;-66
2021/10/11 07:59:03;;;;;;;;;11.33;8.33;;;;;12.78;73.94;102526.91;4978577;28;45377;-66
2021/10/11 08:01:29;;;;;;;;;7.33;6.00;;;;;12.83;73.52;102534.56;4963389;28;45466;-66
2021/10/11 08:03:55;;;;;;;;;8.00;6.33;;;;;12.85;72.70;102522.97;4979481;28;46999;-66
2021/10/11 08:06:22;;;;;;;;;12.00;9.67;;;;;12.90;73.55;102530.66;4979291;28;45452;-68
2021/10/11 08:08:47;;;;;;;;;6.67;6.67;;;;;12.93;73.22;102524.38;4978555;28;45302;-65
2021/10/11 08:11:13;;;;;;;;;11.33;10.00;;;;;12.98;72.71;102535.50;4975877;28;45381;-65
2021/10/11 08:13:39;;;;;;;;;4.00;4.00;;;;;12.98;72.57;102538.97;4981056;28;46095;-67
2021/10/11 08:16:04;;;;;;;;;7.33;4.00;;;;;12.96;72.39;102535.59;4991859;28;45413;-65
2021/10/11 08:18:30;;;;;;;;;7.33;7.00;;;;;12.99;72.42;102540.69;4990002;28;45508;-65
2021/10/11 08:20:55;;;;;;;;;6.67;4.33;;;;;13.02;72.59;102547.59;4976699;28;46802;-65
2021/10/11 08:23:20;;;;;;;;;7.67;7.00;;;;;13.07;72.24;102542.06;4981568;28;46258;-65
2021/10/11 08:25:46;;;;;;;;;6.00;5.33;;;;;13.10;71.77;102548.00;4980096;28;45252;-64
2021/10/11 08:28:11;;;;;;;;;8.67;6.67;;;;;13.13;71.58;102541.69;4979319;28;45597;-66
2021/10/11 08:30:37;;;;;;;;;7.67;5.00;;;;;13.15;71.48;102543.31;4971090;28;47183;-65
2021/10/11 08:33:02;;;;;;;;;7.00;6.33;;;;;13.20;71.94;102548.34;4962425;28;46132;-66
2021/10/11 08:35:27;;;;;;;;;8.33;8.33;;;;;13.30;71.65;102538.13;4980572;28;45486;-65
2021/10/11 08:37:53;;;;;;;;;13.33;7.67;;;;;13.45;71.53;102544.34;4983201;28;45417;-66
2021/10/11 08:40:20;;;;;;;;;6.00;6.00;;;;;13.55;71.05;102537.59;4982753;28;45587;-66
2021/10/11 08:42:46;;;;;;;;;10.00;8.67;;;;;13.62;70.83;102541.59;4982003;28;46433;-65
2021/10/11 08:45:12;;;;;;;;;6.00;3.00;;;;;13.63;70.03;102545.91;4991398;28;45473;-66
2021/10/11 08:47:37;;;;;;;;;6.67;5.00;;;;;13.64;68.48;102552.91;4980082;28;45368;-66
2021/10/11 08:50:04;;;;;;;;;3.00;3.00;;;;;13.60;68.89;102540.81;4981621;28;45319;-65
2021/10/11 08:52:29;;;;;;;;;4.33;4.33;;;;;13.59;68.30;102546.19;4983891;28;46387;-65
2021/10/11 08:54:55;;;;;;;;;6.33;5.00;;;;;13.58;68.78;102553.25;4990720;28;45414;-66
2021/10/11 08:57:28;;;;;;;;;4.33;2.33;;;;;13.61;68.39;102545.16;4987655;28;45509;-68
2021/10/11 09:00:05;;;;;;;;;5.67;3.00;;;;;13.65;68.31;102554.59;4985085;28;45366;-66
2021/10/11 09:02:30;;;;;;;;;4.33;4.00;;;;;13.69;68.49;102555.28;4963514;28;45527;-67
2021/10/11 09:04:56;;;;;;;;;4.00;4.00;;;;;13.75;68.27;102559.34;4979419;28;45408;-67
2021/10/11 09:07:30;;;;;;;;;4.67;3.67;;;;;13.80;67.26;102558.16;4981200;28;45441;-66
2021/10/11 09:09:59;;;;;;;;;5.00;2.00;;;;;13.82;67.26;102561.53;4985330;28;45291;-63
2021/10/11 09:12:29;;;;;;;;;4.33;3.00;;;;;13.85;67.23;102563.97;4965972;28;46998;-66
2021/10/11 09:15:14;;;;;;;;;9.33;4.00;;;;;13.91;67.42;102560.16;4980651;28;45450;-64
2021/10/11 09:17:48;;;;;;;;;7.00;5.00;;;;;13.99;67.21;102557.88;4975067;28;45551;-69
2021/10/11 09:20:14;;;;;;;;;4.00;2.67;;;;;14.06;66.42;102568.94;4976869;28;45454;-68
2021/10/11 09:22:43;;;;;;;;;2.33;1.67;;;;;14.09;63.92;102573.19;4981797;28;45465;-70
2021/10/11 09:25:11;;;;;;;;;3.00;3.00;;;;;14.13;65.65;102574.72;4974814;28;45476;-66
2021/10/11 09:27:52;;;;;;;;;2.33;1.00;;;;;14.17;63.94;102570.97;4976620;28;45645;-68
2021/10/11 09:30:20;;;;;;;;;3.33;2.00;;;;;14.22;64.89;102571.53;4979609;28;45341;-68
2021/10/11 09:32:46;;;;;;;;;4.00;3.00;;;;;14.32;65.02;102571.81;4979155;28;46666;-67
2021/10/11 09:35:20;;;;;;;;;3.33;1.00;;;;;14.45;64.88;102561.31;4976412;28;45691;-67
2021/10/11 09:37:50;;;;;;;;;3.00;3.00;;;;;14.57;64.25;102557.94;4967541;28;45389;-68
2021/10/11 09:40:18;;;;;;;;;3.33;2.67;;;;;14.69;62.59;102553.72;4988298;28;45495;-68
2021/10/11 09:42:43;;;;;;;;;2.33;2.00;;;;;14.78;63.34;102552.28;4978728;28;45694;-67
2021/10/11 09:45:09;;;;;;;;;2.00;2.00;;;;;14.86;62.94;102547.34;4980040;28;45544;-67
2021/10/11 09:47:37;;;;;;;;;2.67;2.00;;;;;14.91;62.16;102550.56;4998243;28;45380;-67
2021/10/11 09:50:08;;;;;;;;;3.00;2.00;;;;;14.96;60.72;102540.53;4979668;28;45448;-69
2021/10/11 09:52:34;;;;;;;;;3.67;1.67;;;;;15.01;61.05;102541.06;4985696;28;46053;-68
2021/10/11 09:55:00;;;;;;;;;2.00;1.67;;;;;15.09;61.47;102539.72;4984173;28;45542;-68
2021/10/11 09:57:26;;;;;;;;;2.33;2.33;;;;;15.14;61.14;102540.28;4989225;28;45397;-67
2021/10/11 09:59:53;;;;;;;;;3.67;3.00;;;;;15.23;61.03;102550.28;4978022;28;45376;-67
2021/10/11 10:02:26;;;;;;;;;2.67;1.67;;;;;15.32;59.86;102533.78;4976580;28;47926;-69
2021/10/11 10:04:56;;;;;;;;;1.00;1.00;;;;;15.42;59.16;102544.59;4971098;28;45472;-69
2021/10/11 10:07:26;;;;;;;;;2.00;0.33;;;;;15.48;59.72;102546.03;4979711;28;45351;-68
2021/10/11 10:09:55;;;;;;;;;1.00;1.00;;;;;15.53;58.74;102541.28;4979349;28;45709;-68
2021/10/11 10:12:21;;;;;;;;;3.00;2.00;;;;;15.50;58.01;102546.75;4988190;28;45625;-68
2021/10/11 10:15:04;;;;;;;;;12.00;10.33;;;;;15.50;58.02;102547.63;4963066;28;45549;-69
2021/10/11 10:17:37;;;;;;;;;3.33;2.33;;;;;15.49;58.48;102545.03;4964003;28;45524;-71
2021/10/11 10:20:05;;;;;;;;;3.00;1.67;;;;;15.45;56.93;102546.22;4978441;28;45389;-69
2021/10/11 10:22:30;;;;;;;;;2.67;2.67;;;;;15.41;56.21;102545.59;4966137;28;46132;-69
2021/10/11 10:25:11;;;;;;;;;2.00;2.00;;;;;15.39;56.28;102546.63;4978773;28;45407;-69
2021/10/11 10:27:39;;;;;;;;;3.00;2.00;;;;;15.32;55.96;102538.22;4986854;28;45674;-69
2021/10/11 10:30:25;;;;;;;;;4.33;1.67;;;;;15.27;55.15;102538.53;4981854;28;45436;-67
2021/10/11 10:32:58;;;;;;;;;2.00;2.00;;;;;15.27;56.21;102541.19;4981309;28;46104;-69
2021/10/11 10:35:26;;;;;;;;;3.67;2.00;;;;;15.33;57.09;102546.09;4961288;28;45258;-69
2021/10/11 10:37:52;;;;;;;;;8.33;2.00;;;;;15.39;57.15;102544.00;4964233;28;45450;-68
2021/10/11 10:40:19;;;;;;;;;3.67;2.00;;;;;15.48;57.99;102541.56;4989932;28;45409;-72
2021/10/11 10:42:46;;;;;;;;;3.67;2.00;;;;;15.59;58.03;102548.78;4986235;28;47596;-77
2021/10/11 10:45:19;;;;;;;;;6.67;3.67;;;;;15.64;57.59;102554.63;4989732;28;45402;-76
2021/10/11 10:47:47;;;;;;;;;3.00;3.00;;;;;15.66;56.44;102555.38;4979387;28;45348;-77
2021/10/11 10:50:17;;;;;;;;;6.33;2.00;;;;;15.66;56.47;102546.59;4996023;28;45446;-78
2021/10/11 10:52:50;;;;;;;;;5.67;2.00;;;;;15.60;57.16;102531.94;4981715;28;46081;-79
2021/10/11 10:55:16;;;;;;;;;2.33;2.33;;;;;15.58;54.18;102539.16;4979568;28;45461;-75
2021/10/11 10:57:44;;;;;;;;;7.00;2.00;;;;;15.54;53.64;102537.66;4983329;28;45382;-75
2021/10/11 11:00:13;;;;;;;;;1.00;1.00;;;;;15.51;53.50;102535.22;4989103;28;44769;-77
2021/10/11 11:02:47;;;;;;;;;2.00;1.00;;;;;15.50;52.76;102547.63;4999223;28;47019;-77
2021/10/11 11:05:14;;;;;;;;;6.67;1.00;;;;;15.51;51.89;102548.47;4981042;28;45447;-76
2021/10/11 11:07:42;;;;;;;;;1.00;1.00;;;;;15.53;51.43;102562.47;4984199;28;45312;-76
2021/10/11 11:10:19;;;;;;;;;1.00;1.00;;;;;15.53;51.00;102557.16;4980949;28;45476;-78